createdAt,value
2023-02-24T00:01:37.678Z,99625.59
2023-02-24T00:04:08.378Z,99626.38
2023-02-24T00:06:41.007Z,99625.47
2023-02-24T00:09:10.997Z,99619.38
2023-02-24T00:11:43.542Z,99616.81
2023-02-24T00:14:15.830Z,99609.16
2023-02-24T00:16:45.054Z,99606.56
2023-02-24T00:19:16.225Z,99604.91
2023-02-24T00:21:44.927Z,99604.91
2023-02-24T00:24:13.280Z,99605.50
2023-02-24T00:26:41.505Z,99608.03
2023-02-24T00:29:12.462Z,99602.88
2023-02-24T00:31:42.937Z,99594.22
2023-02-24T00:34:13.175Z,99595.91
2023-02-24T00:36:41.585Z,99595.78
2023-02-24T00:39:12.270Z,99600.06
2023-02-24T00:41:42.341Z,99587.13
2023-02-24T00:44:13.373Z,99593.88
2023-02-24T00:46:44.592Z,99594.75
2023-02-24T00:49:16.834Z,99598.16
2023-02-24T00:51:48.459Z,99597.31
2023-02-24T00:54:18.692Z,99603.38
2023-02-24T00:56:47.996Z,99592.16
2023-02-24T00:59:18.573Z,99602.47
2023-02-24T01:01:49.805Z,99593.00
2023-02-24T01:04:18.926Z,99590.41
2023-02-24T01:06:48.407Z,99598.03
2023-02-24T01:09:20.052Z,99585.91
2023-02-24T01:12:08.016Z,99582.41
2023-02-24T01:14:36.983Z,99591.69
2023-02-24T01:17:08.705Z,99581.38
2023-02-24T01:19:37.684Z,99586.44
2023-02-24T01:22:07.573Z,99579.44
2023-02-24T01:24:38.028Z,99575.94
2023-02-24T01:27:08.176Z,99573.38
2023-02-24T01:29:39.372Z,99569.94
2023-02-24T01:32:16.805Z,99569.16
2023-02-24T01:34:44.556Z,99569.16
2023-02-24T01:37:16.192Z,99569.16
2023-02-24T01:39:44.579Z,99572.56
2023-02-24T01:42:16.343Z,99563.94
2023-02-24T01:45:06.851Z,99560.53
2023-02-24T01:47:38.613Z,99562.13
2023-02-24T01:50:10.875Z,99558.66
2023-02-24T01:52:39.853Z,99557.78
2023-02-24T01:55:13.308Z,99558.75
2023-02-24T01:57:46.048Z,99555.25
2023-02-24T02:00:32.449Z,99544.94
2023-02-24T02:03:07.899Z,99546.50
2023-02-24T02:05:35.481Z,99544.84
2023-02-24T02:08:05.901Z,99537.97
2023-02-24T02:10:34.036Z,99527.69
2023-02-24T02:13:04.497Z,99525.97
2023-02-24T02:15:36.311Z,99525.09
2023-02-24T02:18:12.607Z,99526.00
2023-02-24T02:21:04.061Z,99520.84
2023-02-24T02:23:57.883Z,99523.41
2023-02-24T02:26:48.742Z,99521.72
2023-02-24T02:29:47.553Z,99526.03
2023-02-24T02:32:51.724Z,99514.13
2023-02-24T02:35:24.156Z,99510.63
2023-02-24T02:37:56.894Z,99508.97
2023-02-24T02:40:29.136Z,99515.00
2023-02-24T02:43:03.972Z,99509.09
2023-02-24T02:45:40.132Z,99507.38
2023-02-24T02:48:13.251Z,99509.94
2023-02-24T02:50:49.723Z,99504.81
2023-02-24T02:53:25.486Z,99502.25
2023-02-24T02:55:57.874Z,99506.53
2023-02-24T02:58:31.746Z,99498.81
2023-02-24T03:01:02.585Z,99493.69
2023-02-24T03:03:33.197Z,99492.75
2023-02-24T03:06:07.424Z,99482.38
2023-02-24T03:08:40.328Z,99491.63
2023-02-24T03:11:10.533Z,99487.25
2023-02-24T03:13:42.309Z,99484.66
2023-02-24T03:16:12.550Z,99492.38
2023-02-24T03:18:50.785Z,99489.00
2023-02-24T03:21:30.651Z,99484.81
2023-02-24T03:23:58.533Z,99482.25
2023-02-24T03:26:30.430Z,99481.41
2023-02-24T03:29:07.366Z,99479.66
2023-02-24T03:31:43.589Z,99477.09
2023-02-24T03:34:19.028Z,99481.25
2023-02-24T03:36:48.992Z,99482.09
2023-02-24T03:39:17.315Z,99482.00
2023-02-24T03:41:59.911Z,99483.69
2023-02-24T03:44:29.883Z,99488.84
2023-02-24T03:46:57.691Z,99487.94
2023-02-24T03:49:25.602Z,99493.06
2023-02-24T03:52:09.665Z,99490.53
2023-02-24T03:54:52.674Z,99485.44
2023-02-24T03:57:34.681Z,99474.31
2023-02-24T04:00:22.393Z,99479.53
2023-02-24T04:03:04.182Z,99472.69
2023-02-24T04:05:37.517Z,99473.53
2023-02-24T04:08:10.112Z,99476.09
2023-02-24T04:10:42.185Z,99476.88
2023-02-24T04:13:19.721Z,99474.41
2023-02-24T04:15:57.295Z,99475.25
2023-02-24T04:18:29.059Z,99476.13
2023-02-24T04:21:00.174Z,99478.72
2023-02-24T04:23:33.755Z,99472.72
2023-02-24T04:26:02.941Z,99465.88
2023-02-24T04:28:32.178Z,99463.28
2023-02-24T04:31:05.873Z,99467.53
2023-02-24T04:33:35.516Z,99458.88
2023-02-24T04:36:03.195Z,99452.03
2023-02-24T04:38:36.819Z,99452.97
2023-02-24T04:41:05.214Z,99450.44
2023-02-24T04:43:32.728Z,99445.28
2023-02-24T04:46:00.328Z,99441.78
2023-02-24T04:48:30.065Z,99441.88
2023-02-24T04:51:02.414Z,99440.19
2023-02-24T04:53:30.214Z,99435.69
2023-02-24T04:56:08.219Z,99431.38
2023-02-24T04:58:37.318Z,99427.13
2023-02-24T05:01:10.435Z,99415.16
2023-02-24T05:03:38.771Z,99418.56
2023-02-24T05:06:08.572Z,99417.66
2023-02-24T05:08:38.503Z,99413.44
2023-02-24T05:11:08.324Z,99407.56
2023-02-24T05:13:37.550Z,99400.66
2023-02-24T05:16:07.505Z,99409.25
2023-02-24T05:18:36.891Z,99402.31
2023-02-24T05:21:25.372Z,99398.84
2023-02-24T05:23:55.366Z,99398.84
2023-02-24T05:26:25.662Z,99391.94
2023-02-24T05:28:56.372Z,99385.84
2023-02-24T05:31:27.057Z,99387.50
2023-02-24T05:33:57.510Z,99381.50
2023-02-24T05:36:26.516Z,99384.09
2023-02-24T05:38:57.841Z,99378.09
2023-02-24T05:41:32.350Z,99372.91
2023-02-24T05:44:04.668Z,99373.88
2023-02-24T05:46:34.362Z,99374.78
2023-02-24T05:49:04.676Z,99377.50
2023-02-24T05:51:35.409Z,99369.84
2023-02-24T05:54:04.591Z,99368.09
2023-02-24T05:56:34.824Z,99363.78
2023-02-24T05:59:03.762Z,99361.25
2023-02-24T06:01:32.958Z,99354.47
2023-02-24T06:04:05.944Z,99351.03
2023-02-24T06:06:38.042Z,99344.09
2023-02-24T06:09:10.720Z,99347.44
2023-02-24T06:11:41.632Z,99344.03
2023-02-24T06:14:10.539Z,99340.69
2023-02-24T06:16:40.699Z,99334.63
2023-02-24T06:19:09.882Z,99338.09
2023-02-24T06:21:41.052Z,99343.16
2023-02-24T06:24:14.383Z,99343.28
2023-02-24T06:26:43.998Z,99340.69
2023-02-24T06:29:15.550Z,99340.78
2023-02-24T06:31:44.124Z,99338.13
2023-02-24T06:34:13.381Z,99333.75
2023-02-24T06:36:43.061Z,99326.06
2023-02-24T06:39:14.387Z,99325.09
2023-02-24T06:41:43.643Z,99326.91
2023-02-24T06:44:11.280Z,99315.06
2023-02-24T06:46:38.812Z,99328.09
2023-02-24T06:49:06.373Z,99323.06
2023-02-24T06:51:33.987Z,99324.09
2023-02-24T06:54:02.732Z,99324.13
2023-02-24T06:56:32.335Z,99322.47
2023-02-24T06:59:01.467Z,99321.53
2023-02-24T07:01:29.820Z,99324.66
2023-02-24T07:04:20.205Z,99323.78
2023-02-24T07:06:52.092Z,99324.00
2023-02-24T07:09:22.367Z,99324.97
2023-02-24T07:11:52.208Z,99329.25
2023-02-24T07:14:23.005Z,99336.19
2023-02-24T07:16:54.216Z,99344.00
2023-02-24T07:19:24.251Z,99337.81
2023-02-24T07:21:52.687Z,99334.28
2023-02-24T07:24:25.879Z,99332.59
2023-02-24T07:26:58.079Z,99330.75
2023-02-24T07:29:29.015Z,99326.00
2023-02-24T07:32:01.421Z,99318.53
2023-02-24T07:34:29.200Z,99317.75
2023-02-24T07:36:57.769Z,99312.78
2023-02-24T07:39:25.597Z,99314.63
2023-02-24T07:41:55.444Z,99313.66
2023-02-24T07:44:24.462Z,99315.38
2023-02-24T07:46:54.259Z,99310.16
2023-02-24T07:49:25.870Z,99315.25
2023-02-24T07:51:57.700Z,99310.06
2023-02-24T07:54:28.636Z,99312.72
2023-02-24T07:56:59.049Z,99309.66
2023-02-24T07:59:29.447Z,99309.84
2023-02-24T08:01:58.574Z,99311.53
2023-02-24T08:04:28.499Z,99319.28
2023-02-24T08:06:57.429Z,99302.91
2023-02-24T08:09:44.215Z,99296.97
2023-02-24T08:12:13.711Z,99294.53
2023-02-24T08:14:44.605Z,99301.44
2023-02-24T08:17:19.746Z,99292.19
2023-02-24T08:19:48.304Z,99281.16
2023-02-24T08:22:21.078Z,99282.06
2023-02-24T08:24:52.826Z,99290.00
2023-02-24T08:27:22.343Z,99285.78
2023-02-24T08:30:01.603Z,99286.63
2023-02-24T08:32:34.575Z,99286.56
2023-02-24T08:35:04.632Z,99295.13
2023-02-24T08:37:39.595Z,99286.38
2023-02-24T08:40:29.380Z,99286.47
2023-02-24T08:42:58.571Z,99284.81
2023-02-24T08:45:28.705Z,99279.56
2023-02-24T08:48:01.497Z,99276.03
2023-02-24T08:50:32.563Z,99274.28
2023-02-24T08:53:01.018Z,99274.16
2023-02-24T08:55:32.937Z,99288.69
2023-02-24T08:58:01.644Z,99276.59
2023-02-24T09:00:48.901Z,99274.03
2023-02-24T09:03:28.821Z,99268.81
2023-02-24T09:06:01.944Z,99266.16
2023-02-24T09:08:33.511Z,99265.69
2023-02-24T09:11:02.112Z,99259.81
2023-02-24T09:13:32.963Z,99264.97
2023-02-24T09:16:02.222Z,99258.97
2023-02-24T09:18:38.315Z,99262.44
2023-02-24T09:21:36.900Z,99258.81
2023-02-24T09:24:07.660Z,99265.72
2023-02-24T09:26:43.052Z,99257.13
2023-02-24T09:29:32.824Z,99246.13
2023-02-24T09:32:05.382Z,99250.66
2023-02-24T09:34:36.401Z,99249.00
2023-02-24T09:37:05.321Z,99253.38
2023-02-24T09:39:55.400Z,99247.44
2023-02-24T09:42:33.207Z,99244.81
2023-02-24T09:45:04.315Z,99241.47
2023-02-24T09:47:56.722Z,99238.81
2023-02-24T09:51:02.546Z,99238.13
2023-02-24T09:53:41.296Z,99234.78
2023-02-24T09:56:22.042Z,99233.00
2023-02-24T09:58:53.138Z,99237.88
2023-02-24T10:01:42.642Z,99234.28
2023-02-24T10:04:49.012Z,99225.56
2023-02-24T10:07:25.312Z,99230.75
2023-02-24T10:10:18.674Z,99224.75
2023-02-24T10:12:51.082Z,99229.91
2023-02-24T10:15:41.551Z,99222.13
2023-02-24T10:18:28.273Z,99216.09
2023-02-24T10:21:02.728Z,99217.84
2023-02-24T10:23:46.435Z,99216.97
2023-02-24T10:26:31.595Z,99204.22
2023-02-24T10:29:08.961Z,99200.84
2023-02-24T10:31:47.905Z,99199.16
2023-02-24T10:34:25.440Z,99198.31
2023-02-24T10:36:57.392Z,99196.84
2023-02-24T10:39:27.010Z,99187.50
2023-02-24T10:41:58.237Z,99192.78
2023-02-24T10:44:35.928Z,99188.81
2023-02-24T10:47:12.197Z,99186.25
2023-02-24T10:49:56.704Z,99188.72
2023-02-24T10:52:50.280Z,99186.84
2023-02-24T10:55:29.111Z,99188.59
2023-02-24T10:58:06.827Z,99173.84
2023-02-24T11:01:12.461Z,99169.63
2023-02-24T11:03:47.968Z,99162.78
2023-02-24T11:06:52.519Z,99154.34
2023-02-24T11:09:35.365Z,99150.31
2023-02-24T11:12:33.099Z,99144.44
2023-02-24T11:15:21.861Z,99141.84
2023-02-24T11:17:53.367Z,99142.72
2023-02-24T11:20:42.294Z,99129.09
2023-02-24T11:23:18.732Z,99125.75
2023-02-24T11:25:49.663Z,99111.28
2023-02-24T11:28:37.674Z,99105.44
2023-02-24T11:31:18.290Z,99093.75
2023-02-24T11:33:52.390Z,99092.19
2023-02-24T11:36:29.645Z,99085.16
2023-02-24T11:39:18.755Z,99080.94
2023-02-24T11:41:53.396Z,99084.56
2023-02-24T11:44:29.018Z,99075.13
2023-02-24T11:47:00.633Z,99072.47
2023-02-24T11:49:36.985Z,99068.91
2023-02-24T11:52:08.046Z,99062.09
2023-02-24T11:54:40.066Z,99043.09
2023-02-24T11:57:15.380Z,99040.53
2023-02-24T11:59:50.037Z,99037.09
2023-02-24T12:02:24.434Z,99030.13
2023-02-24T12:05:00.760Z,99023.22
2023-02-24T12:07:34.409Z,99019.78
2023-02-24T12:10:16.625Z,99010.44
2023-02-24T12:12:51.679Z,99005.44
2023-02-24T12:15:25.596Z,98999.25
2023-02-24T12:18:04.234Z,99001.03
2023-02-24T12:20:37.014Z,99002.63
2023-02-24T12:23:17.174Z,98999.16
2023-02-24T12:26:06.667Z,98983.72
2023-02-24T12:28:48.623Z,98977.69
2023-02-24T12:31:29.190Z,98981.94
2023-02-24T12:34:08.573Z,98976.72
2023-02-24T12:37:11.250Z,98970.63
2023-02-24T12:39:48.870Z,98970.69
2023-02-24T12:42:26.678Z,98972.25
2023-02-24T12:45:02.121Z,98956.06
2023-02-24T12:47:43.872Z,98960.31
2023-02-24T12:50:22.720Z,98963.63
2023-02-24T12:53:01.378Z,98962.72
2023-02-24T12:55:37.930Z,98951.75
2023-02-24T12:58:12.825Z,98956.94
2023-02-24T13:00:51.241Z,98954.19
2023-02-24T13:03:33.709Z,98949.94
2023-02-24T13:06:13.208Z,98949.03
2023-02-24T13:08:50.733Z,98938.75
2023-02-24T13:11:28.765Z,98936.94
2023-02-24T13:14:00.549Z,98935.28
2023-02-24T13:16:29.472Z,98922.44
2023-02-24T13:19:07.794Z,98919.97
2023-02-24T13:21:35.532Z,98914.88
2023-02-24T13:24:03.922Z,98903.81
2023-02-24T13:26:33.111Z,98910.59
2023-02-24T13:29:03.273Z,98902.81
2023-02-24T13:31:43.605Z,98892.38
2023-02-24T13:34:30.980Z,98899.22
2023-02-24T13:36:58.616Z,98893.28
2023-02-24T13:39:34.250Z,98891.44
2023-02-24T13:42:04.622Z,98876.91
2023-02-24T13:44:32.877Z,98882.06
2023-02-24T13:47:35.602Z,98881.19
2023-02-24T13:50:19.659Z,98876.88
2023-02-24T13:53:05.331Z,98870.94
2023-02-24T13:55:47.843Z,98870.09
2023-02-24T13:58:42.037Z,98878.63
2023-02-24T14:01:12.293Z,98871.75
2023-02-24T14:03:42.092Z,98876.06
2023-02-24T14:06:19.106Z,98865.75
2023-02-24T14:08:50.899Z,98860.59
2023-02-24T14:11:21.730Z,98862.28
2023-02-24T14:13:52.114Z,98853.75
2023-02-24T14:16:23.801Z,98854.69
2023-02-24T14:18:56.335Z,98840.97
2023-02-24T14:21:27.561Z,98834.13
2023-02-24T14:24:00.302Z,98844.44
2023-02-24T14:26:28.726Z,98834.06
2023-02-24T14:29:01.348Z,98825.50
2023-02-24T14:31:31.209Z,98825.50
2023-02-24T14:34:02.386Z,98825.50
2023-02-24T14:36:34.211Z,98821.16
2023-02-24T14:39:07.945Z,98820.31
2023-02-24T14:41:35.590Z,98821.13
2023-02-24T14:44:16.431Z,98809.09
2023-02-24T14:46:48.676Z,98809.97
2023-02-24T14:49:21.260Z,98817.63
2023-02-24T14:51:54.834Z,98803.88
2023-02-24T14:54:36.292Z,98803.06
2023-02-24T14:57:04.596Z,98800.44
2023-02-24T14:59:35.273Z,98784.09
2023-02-24T15:02:05.404Z,98780.66
2023-02-24T15:04:37.007Z,98783.28
2023-02-24T15:07:08.549Z,98795.34
2023-02-24T15:09:41.802Z,98788.44
2023-02-24T15:12:13.679Z,98780.75
2023-02-24T15:14:47.998Z,98777.28
2023-02-24T15:17:19.144Z,98772.91
2023-02-24T15:19:48.938Z,98773.78
2023-02-24T15:22:25.259Z,98768.63
2023-02-24T15:24:55.627Z,98765.28
2023-02-24T15:27:28.775Z,98775.50
2023-02-24T15:30:02.346Z,98756.59
2023-02-24T15:32:33.592Z,98752.44
2023-02-24T15:35:02.306Z,98758.38
2023-02-24T15:37:38.812Z,98749.75
2023-02-24T15:40:18.687Z,98757.44
2023-02-24T15:42:51.456Z,98744.56
2023-02-24T15:45:31.132Z,98752.28
2023-02-24T15:48:01.432Z,98756.63
2023-02-24T15:50:30.725Z,98754.03
2023-02-24T15:53:04.569Z,98739.44
2023-02-24T15:55:32.705Z,98739.44
2023-02-24T15:58:03.006Z,98739.44
2023-02-24T16:00:32.243Z,98740.25
2023-02-24T16:02:59.980Z,98739.41
2023-02-24T16:05:27.790Z,98740.44
2023-02-24T16:07:55.717Z,98725.75
2023-02-24T16:10:27.798Z,98718.84
2023-02-24T16:12:57.388Z,98726.53
2023-02-24T16:15:27.974Z,98722.22
2023-02-24T16:17:56.320Z,98712.84
2023-02-24T16:20:28.173Z,98716.22
2023-02-24T16:22:57.204Z,98708.56
2023-02-24T16:25:27.205Z,98700.81
2023-02-24T16:27:57.306Z,98708.50
2023-02-24T16:30:30.217Z,98711.91
2023-02-24T16:32:58.602Z,98706.72
2023-02-24T16:35:27.554Z,98710.06
2023-02-24T16:37:55.488Z,98710.06
2023-02-24T16:40:27.813Z,98703.19
2023-02-24T16:42:55.414Z,98713.50
2023-02-24T16:45:26.608Z,98708.34
2023-02-24T16:47:56.459Z,98714.34
2023-02-24T16:50:26.373Z,98711.78
2023-02-24T16:52:53.949Z,98720.31
2023-02-24T16:55:21.528Z,98720.31
2023-02-24T16:57:50.477Z,98717.69
2023-02-24T17:00:23.586Z,98711.72
2023-02-24T17:02:52.573Z,98717.75
2023-02-24T17:05:22.542Z,98727.13
2023-02-24T17:07:51.818Z,98716.84
2023-02-24T17:10:20.450Z,98721.94
2023-02-24T17:12:48.259Z,98719.38
2023-02-24T17:15:19.335Z,98714.19
2023-02-24T17:17:47.200Z,98725.28
2023-02-24T17:20:16.804Z,98721.84
2023-02-24T17:22:45.003Z,98717.50
2023-02-24T17:25:16.176Z,98717.47
2023-02-24T17:27:43.991Z,98714.84
2023-02-24T17:30:14.306Z,98710.50
2023-02-24T17:32:43.287Z,98711.38
2023-02-24T17:35:11.186Z,98705.38
2023-02-24T17:37:38.829Z,98712.19
2023-02-24T17:40:07.625Z,98713.84
2023-02-24T17:42:35.613Z,98715.56
2023-02-24T17:45:03.845Z,98723.19
2023-02-24T17:47:31.715Z,98726.63
2023-02-24T17:50:00.650Z,98725.75
2023-02-24T17:52:29.510Z,98729.13
2023-02-24T17:54:58.788Z,98731.72
2023-02-24T17:57:27.038Z,98738.50
2023-02-24T17:59:54.611Z,98734.22
2023-02-24T18:02:23.993Z,98747.91
2023-02-24T18:04:51.713Z,98729.88
2023-02-24T18:07:21.193Z,98729.88
2023-02-24T18:09:48.941Z,98738.44
2023-02-24T18:12:18.459Z,98735.00
2023-02-24T18:14:48.393Z,98741.81
2023-02-24T18:17:17.239Z,98745.22
2023-02-24T18:19:44.821Z,98745.22
2023-02-24T18:22:12.793Z,98745.16
2023-02-24T18:24:41.832Z,98740.88
2023-02-24T18:27:09.480Z,98752.00
2023-02-24T18:29:37.080Z,98751.09
2023-02-24T18:32:05.242Z,98749.31
2023-02-24T18:34:33.069Z,98752.78
2023-02-24T18:37:01.302Z,98758.72
2023-02-24T18:39:29.580Z,98762.97
2023-02-24T18:41:59.572Z,98761.19
2023-02-24T18:44:28.360Z,98766.28
2023-02-24T18:46:55.987Z,98761.16
2023-02-24T18:49:23.753Z,98750.84
2023-02-24T18:51:51.359Z,98756.03
2023-02-24T18:54:19.462Z,98756.75
2023-02-24T18:56:47.035Z,98760.22
2023-02-24T18:59:15.942Z,98759.28
2023-02-24T19:01:43.601Z,98754.22
2023-02-24T19:04:17.632Z,98755.94
2023-02-24T19:06:48.960Z,98751.72
2023-02-24T19:09:21.367Z,98753.41
2023-02-24T19:11:49.865Z,98751.72
2023-02-24T19:14:18.815Z,98760.31
2023-02-24T19:16:46.393Z,98746.59
2023-02-24T19:19:16.270Z,98751.75
2023-02-24T19:21:45.320Z,98749.16
2023-02-24T19:24:13.663Z,98755.16
2023-02-24T19:26:42.680Z,98752.59
2023-02-24T19:29:10.893Z,98748.19
2023-02-24T19:31:40.167Z,98762.75
2023-02-24T19:34:11.112Z,98761.88
2023-02-24T19:36:39.088Z,98746.50
2023-02-24T19:39:10.305Z,98758.38
2023-02-24T19:41:38.362Z,98756.69
2023-02-24T19:44:06.492Z,98749.03
2023-02-24T19:46:34.297Z,98748.19
2023-02-24T19:49:03.593Z,98749.91
2023-02-24T19:51:31.791Z,98741.38
2023-02-24T19:54:02.618Z,98747.41
2023-02-24T19:56:32.045Z,98748.38
2023-02-24T19:59:01.271Z,98740.69
2023-02-24T20:01:30.987Z,98744.84
2023-02-24T20:04:00.277Z,98742.28
2023-02-24T20:06:31.909Z,98755.75
2023-02-24T20:09:00.010Z,98742.94
2023-02-24T20:11:28.696Z,98751.47
2023-02-24T20:13:56.655Z,98754.97
2023-02-24T20:16:26.358Z,98756.66
2023-02-24T20:18:55.518Z,98760.00
2023-02-24T20:21:23.358Z,98763.38
2023-02-24T20:23:52.425Z,98763.31
2023-02-24T20:26:20.604Z,98762.53
2023-02-24T20:28:48.873Z,98769.34
2023-02-24T20:39:40.775Z,98782.16
2023-02-24T20:42:08.427Z,98789.06
2023-02-24T20:44:36.057Z,98780.47
2023-02-24T20:47:03.645Z,98788.94
2023-02-24T20:49:31.185Z,98787.31
2023-02-24T20:51:58.787Z,98789.94
2023-02-24T20:54:26.893Z,98790.72
2023-02-24T20:56:55.905Z,98797.50
2023-02-24T20:59:23.598Z,98805.31
2023-02-24T21:01:51.813Z,98809.53
2023-02-24T21:04:21.942Z,98814.66
2023-02-24T21:11:49.984Z,98839.38
2023-02-24T21:14:19.194Z,98838.13
2023-02-24T21:16:46.930Z,98830.19
2023-02-24T21:19:14.583Z,98828.19
2023-02-24T21:21:42.105Z,98830.69
2023-02-24T21:24:09.875Z,98842.34
2023-02-24T21:26:37.442Z,98843.78
2023-02-24T21:29:05.023Z,98841.75
2023-02-24T21:31:34.089Z,98848.47
2023-02-24T21:34:01.707Z,98844.09
2023-02-24T21:36:29.339Z,98847.41
2023-02-24T21:38:56.991Z,98845.53
2023-02-24T21:41:24.931Z,98855.75
2023-02-24T21:43:54.659Z,98847.97
2023-02-24T21:46:22.821Z,98852.97
2023-02-24T21:48:56.135Z,98856.38
2023-02-24T21:51:24.788Z,98856.16
2023-02-24T21:53:54.790Z,98851.88
2023-02-24T21:56:24.583Z,98854.34
2023-02-24T21:58:54.600Z,98862.16
2023-02-24T22:01:25.111Z,98858.72
2023-02-24T22:03:55.664Z,98848.44
2023-02-24T22:06:23.992Z,98857.00
2023-02-24T22:08:51.681Z,98860.38
2023-02-24T22:11:20.108Z,98862.22
2023-02-24T22:13:48.138Z,98853.81
2023-02-24T22:16:18.023Z,98855.56
2023-02-24T22:18:46.293Z,98861.53
2023-02-24T22:21:18.239Z,98858.06
2023-02-24T22:23:46.683Z,98859.75
2023-02-24T22:26:14.849Z,98860.75
2023-02-24T22:28:44.564Z,98860.84
2023-02-24T22:31:13.714Z,98851.56
2023-02-24T22:33:43.328Z,98855.94
2023-02-24T22:36:14.062Z,98855.09
2023-02-24T22:38:45.465Z,98858.53
2023-02-24T22:41:15.370Z,98857.66
2023-02-24T22:43:43.058Z,98854.28
2023-02-24T22:46:14.211Z,98853.47
2023-02-24T22:48:42.074Z,98865.44
2023-02-24T22:51:11.866Z,98867.16
2023-02-24T22:53:42.255Z,98869.78
2023-02-24T22:56:12.828Z,98865.44
2023-02-24T22:58:40.936Z,98855.97
2023-02-24T23:01:10.407Z,98872.06
2023-02-24T23:03:38.190Z,98872.03
2023-02-24T23:06:08.235Z,98870.44
2023-02-24T23:08:39.218Z,98876.44
2023-02-24T23:11:09.105Z,98879.00
2023-02-24T23:13:38.202Z,98886.66
2023-02-24T23:16:08.304Z,98884.94
2023-02-24T23:18:36.859Z,98888.41
2023-02-24T23:21:07.932Z,98885.91
2023-02-24T23:23:36.545Z,98885.00
2023-02-24T23:26:04.388Z,98880.69
2023-02-24T23:28:31.959Z,98870.44
2023-02-24T23:31:00.884Z,98884.94
2023-02-24T23:33:28.484Z,98902.84
2023-02-24T23:35:56.209Z,98907.91
2023-02-24T23:38:23.707Z,98913.03
2023-02-24T23:40:51.851Z,98926.66
2023-02-24T23:43:19.652Z,98919.88
2023-02-24T23:45:47.245Z,98913.88
2023-02-24T23:48:16.131Z,98918.22
2023-02-24T23:50:45.902Z,98914.81
2023-02-24T23:53:13.472Z,98913.09
2023-02-24T23:55:41.868Z,98926.75
2023-02-24T23:58:09.428Z,98924.97
